Time;durP1;ratioP1;P1;durP2;ratioP2;P2;SDS_P1;SDS_P2;PMS_P1;PMS_P2;Temp;Humidity;BMP_temperature;BMP_pressure;BME280_temperature;BME280_humidity;BME280_pressure;Samples;Min_cycle;Max_cycle;Signal;HPM_P1;HPM_P2
2022/11/11 00:00:15;;;;;;;12.38;4.93;;;10.80;99.90;;;;;;5048143;28;20055;-41
2022/11/11 00:02:40;;;;;;;9.13;4.03;;;10.80;99.90;;;;;;5052320;28;20042;-44
2022/11/11 00:05:06;;;;;;;13.07;4.88;;;10.80;99.90;;;;;;5051670;28;20147;-42
2022/11/11 00:07:32;;;;;;;9.52;4.47;;;10.80;99.90;;;;;;5048300;28;20063;-42
2022/11/11 00:09:58;;;;;;;11.25;4.78;;;10.80;99.90;;;;;;5050692;28;20037;-42
2022/11/11 00:12:23;;;;;;;10.05;4.57;;;10.80;99.90;;;;;;5043683;28;20044;-41
2022/11/11 00:14:49;;;;;;;12.85;4.75;;;10.80;99.90;;;;;;5050551;28;20581;-45
2022/11/11 00:25:28;;;;;;;14.48;4.93;;;10.80;99.90;;;;;;5045527;28;20549;-41
2022/11/11 00:27:54;;;;;;;9.55;4.85;;;10.80;99.90;;;;;;5049469;28;20203;-40
2022/11/11 00:30:19;;;;;;;11.07;5.30;;;10.90;99.90;;;;;;5049269;28;20059;-42
2022/11/11 00:32:45;;;;;;;7.38;4.07;;;10.80;99.90;;;;;;5049223;28;20109;-43
2022/11/11 00:38:09;;;;;;;14.00;4.90;;;10.80;99.90;;;;;;5049839;28;20082;-43
2022/11/11 00:40:35;;;;;;;10.45;5.38;;;10.80;99.90;;;;;;5051543;28;20433;-40
2022/11/11 00:43:01;;;;;;;12.60;5.55;;;10.70;99.90;;;;;;5045266;28;20142;-40
2022/11/11 00:45:26;;;;;;;11.00;5.03;;;10.70;99.90;;;;;;5048122;28;20033;-44
2022/11/11 00:53:23;;;;;;;10.65;4.68;;;10.60;99.90;;;;;;5046481;28;20518;-43
2022/11/11 00:55:49;;;;;;;12.40;5.35;;;10.50;99.90;;;;;;5050253;28;20562;-41
2022/11/11 00:58:15;;;;;;;13.00;4.88;;;10.50;99.90;;;;;;5051596;28;20123;-44
2022/11/11 01:00:42;;;;;;;10.40;5.47;;;10.40;99.90;;;;;;5051028;28;20611;-44
2022/11/11 01:03:08;;;;;;;9.40;4.88;;;10.40;99.90;;;;;;5047329;28;20108;-43
2022/11/11 01:05:35;;;;;;;12.27;5.45;;;10.30;99.90;;;;;;5053762;28;20072;-45
2022/11/11 01:08:01;;;;;;;12.40;5.15;;;10.30;99.90;;;;;;5049323;28;20387;-41
2022/11/11 01:10:40;;;;;;;15.20;5.97;;;10.30;99.90;;;;;;5046552;28;20043;-41
2022/11/11 01:13:14;;;;;;;12.98;5.70;;;10.20;99.90;;;;;;5047976;28;20040;-42
2022/11/11 01:15:43;;;;;;;12.52;5.97;;;10.20;99.90;;;;;;5045713;28;20402;-41
2022/11/11 01:18:10;;;;;;;8.82;5.47;;;10.10;99.90;;;;;;5043471;28;20038;-42
2022/11/11 01:20:37;;;;;;;12.52;6.18;;;10.10;99.90;;;;;;5046827;28;20033;-45
2022/11/11 01:23:07;;;;;;;12.90;6.85;;;10.00;99.90;;;;;;5045314;28;20573;-41
2022/11/11 01:25:34;;;;;;;10.57;6.13;;;10.00;99.90;;;;;;5046610;28;20033;-44
2022/11/11 01:28:00;;;;;;;11.02;5.97;;;9.90;99.90;;;;;;5052220;28;20051;-43
2022/11/11 01:30:26;;;;;;;13.80;6.25;;;9.90;99.90;;;;;;5051977;28;20086;-40
2022/11/11 01:32:52;;;;;;;15.57;6.32;;;9.90;99.90;;;;;;5045372;28;20445;-43
2022/11/11 01:35:17;;;;;;;10.90;6.93;;;9.80;99.90;;;;;;5047946;28;20119;-42
2022/11/11 01:37:43;;;;;;;16.70;7.38;;;9.80;99.90;;;;;;5048265;28;20036;-40
2022/11/11 01:40:09;;;;;;;16.40;8.07;;;9.70;99.90;;;;;;5045063;28;20482;-41
2022/11/11 01:42:49;;;;;;;12.55;7.18;;;9.70;99.90;;;;;;5049158;28;20501;-40
2022/11/11 01:45:56;;;;;;;15.10;7.75;;;9.70;99.90;;;;;;5048025;28;20460;-40
2022/11/11 01:51:39;;;;;;;13.50;7.10;;;9.70;99.90;;;;;;5046420;28;20515;-42
2022/11/11 01:54:10;;;;;;;17.60;8.80;;;9.70;99.90;;;;;;5040561;28;20410;-40
2022/11/11 01:56:38;;;;;;;15.35;9.23;;;9.70;99.90;;;;;;5053445;28;20115;-40
2022/11/11 01:59:11;;;;;;;15.57;8.63;;;9.80;99.90;;;;;;5042495;28;20125;-41
2022/11/11 02:01:38;;;;;;;16.73;7.53;;;9.70;99.90;;;;;;5048491;28;20139;-41
2022/11/11 02:06:53;;;;;;;18.00;9.20;;;9.80;99.90;;;;;;5047394;28;20056;-40
2022/11/11 02:09:23;;;;;;;18.73;8.30;;;9.80;99.90;;;;;;5046870;28;20489;-41
2022/11/11 02:14:41;;;;;;;18.75;9.80;;;9.70;99.90;;;;;;5045764;28;20433;-42
2022/11/11 02:17:13;;;;;;;18.95;9.73;;;9.70;99.90;;;;;;5046967;28;20043;-42
2022/11/11 02:19:52;;;;;;;21.30;9.95;;;9.70;99.90;;;;;;5046469;28;20037;-41
2022/11/11 02:22:27;;;;;;;19.55;10.70;;;9.70;99.90;;;;;;5043898;28;20071;-40
2022/11/11 02:24:54;;;;;;;16.00;9.27;;;9.60;99.90;;;;;;5039881;28;20073;-43
2022/11/11 02:27:22;;;;;;;18.30;9.80;;;9.60;99.90;;;;;;5046845;28;20158;-47
2022/11/11 02:29:49;;;;;;;23.52;11.35;;;9.60;99.90;;;;;;5052259;28;20481;-42
2022/11/11 02:32:15;;;;;;;22.73;10.02;;;9.60;99.90;;;;;;5047505;28;20051;-42
2022/11/11 02:34:41;;;;;;;17.60;10.32;;;9.60;99.90;;;;;;5051837;28;20241;-43
2022/11/11 02:37:08;;;;;;;17.48;10.70;;;9.60;99.90;;;;;;5048400;28;20402;-42
2022/11/11 02:39:39;;;;;;;17.80;10.75;;;9.60;99.90;;;;;;5046862;28;20547;-42
2022/11/11 02:42:09;;;;;;;18.52;10.00;;;9.50;99.90;;;;;;5048211;28;20036;-41
2022/11/11 02:44:36;;;;;;;17.67;10.40;;;9.50;99.90;;;;;;5045760;28;20102;-41
2022/11/11 02:47:03;;;;;;;19.90;10.30;;;9.50;99.90;;;;;;5046147;28;20041;-45
2022/11/11 02:49:29;;;;;;;18.58;10.02;;;9.60;99.90;;;;;;5047332;28;20037;-43
2022/11/11 02:51:54;;;;;;;21.48;10.35;;;9.60;99.90;;;;;;5044141;28;20041;-42
2022/11/11 02:54:20;;;;;;;21.77;10.48;;;9.60;99.90;;;;;;5044837;28;20033;-43
2022/11/11 02:59:30;;;;;;;24.23;11.70;;;9.60;99.90;;;;;;5047286;28;20505;-41
2022/11/11 03:01:55;;;;;;;21.48;10.80;;;9.60;99.90;;;;;;5044818;28;20052;-45
2022/11/11 03:04:21;;;;;;;17.83;11.32;;;9.60;99.90;;;;;;5045158;28;20044;-42
2022/11/11 03:06:47;;;;;;;19.80;11.55;;;9.60;99.90;;;;;;5047091;28;20049;-40
2022/11/11 03:09:12;;;;;;;22.63;10.98;;;9.60;99.90;;;;;;5043441;28;20037;-42
2022/11/11 03:11:38;;;;;;;22.08;11.88;;;9.50;99.90;;;;;;5046453;28;20033;-41
2022/11/11 03:14:04;;;;;;;20.63;10.35;;;9.50;99.90;;;;;;5044945;28;20040;-45
2022/11/11 03:19:14;;;;;;;18.48;10.13;;;9.50;99.90;;;;;;5039133;28;20041;-43
2022/11/11 03:21:40;;;;;;;19.25;10.82;;;9.40;99.90;;;;;;5042067;28;20399;-42
2022/11/11 03:24:06;;;;;;;23.33;11.27;;;9.40;99.90;;;;;;5046725;28;20397;-41
2022/11/11 03:26:31;;;;;;;19.98;11.57;;;9.40;99.90;;;;;;5049294;28;20040;-42
2022/11/11 03:28:57;;;;;;;20.33;11.75;;;9.40;99.90;;;;;;5052801;28;20045;-42
2022/11/11 03:31:23;;;;;;;20.35;11.73;;;9.30;99.90;;;;;;5051638;28;20047;-44
2022/11/11 03:33:49;;;;;;;20.27;11.15;;;9.30;99.90;;;;;;5049454;28;20586;-42
2022/11/11 03:36:14;;;;;;;22.90;11.75;;;9.30;99.90;;;;;;5052319;28;20062;-45
2022/11/11 03:38:40;;;;;;;20.90;11.45;;;9.30;99.90;;;;;;5051460;28;20091;-44
2022/11/11 03:41:05;;;;;;;23.77;11.63;;;9.30;99.90;;;;;;5051754;28;20589;-41
2022/11/11 03:43:34;;;;;;;22.13;11.50;;;9.30;99.90;;;;;;5046017;28;20048;-43
2022/11/11 03:46:02;;;;;;;20.42;11.00;;;9.30;99.90;;;;;;5047406;28;20675;-42
2022/11/11 03:48:31;;;;;;;20.15;10.90;;;9.40;99.90;;;;;;5046162;28;20402;-43
2022/11/11 03:50:56;;;;;;;20.98;12.38;;;9.40;99.90;;;;;;5050971;28;20051;-49
2022/11/11 03:53:22;;;;;;;24.20;11.98;;;9.50;99.90;;;;;;5046374;28;20040;-43
2022/11/11 03:55:49;;;;;;;20.02;12.50;;;9.50;99.90;;;;;;5049677;28;20045;-41
2022/11/11 03:58:15;;;;;;;27.23;12.82;;;9.60;99.90;;;;;;5048212;28;20498;-44
2022/11/11 04:00:41;;;;;;;36.08;15.00;;;9.70;99.90;;;;;;5051489;28;20378;-43
2022/11/11 04:11:31;;;;;;;29.77;13.70;;;9.80;99.90;;;;;;5044910;28;20052;-41
2022/11/11 04:16:44;;;;;;;20.77;12.15;;;9.80;99.90;;;;;;5048070;28;20045;-41
2022/11/11 04:21:54;;;;;;;23.35;12.82;;;9.80;99.90;;;;;;5051753;28;20048;-42
2022/11/11 04:27:08;;;;;;;26.05;13.10;;;9.90;99.90;;;;;;5050439;28;20402;-39
2022/11/11 04:29:34;;;;;;;23.73;11.70;;;10.00;99.90;;;;;;5053490;28;20040;-42
2022/11/11 04:34:54;;;;;;;21.42;12.27;;;10.10;99.90;;;;;;5050829;28;20077;-44
2022/11/11 04:37:21;;;;;;;27.73;13.55;;;10.20;99.90;;;;;;5049471;28;20036;-42
2022/11/11 04:42:33;;;;;;;22.45;12.18;;;10.20;99.90;;;;;;5049327;28;20045;-40
2022/11/11 04:47:52;;;;;;;24.88;13.25;;;10.10;99.90;;;;;;5045510;28;20056;-45
2022/11/11 04:50:18;;;;;;;25.55;13.00;;;10.10;99.90;;;;;;5043055;28;20150;-39
2022/11/11 04:52:43;;;;;;;23.17;12.23;;;10.10;99.90;;;;;;5050171;28;20111;-41
2022/11/11 04:57:53;;;;;;;22.98;11.80;;;10.00;99.90;;;;;;5051751;28;20045;-39
2022/11/11 05:00:19;;;;;;;23.15;12.50;;;9.90;99.90;;;;;;5052710;28;20114;-42
2022/11/11 05:08:54;;;;;;;24.20;12.38;;;9.90;99.90;;;;;;5050151;28;20215;-41
2022/11/11 05:11:03;;;;;;;20.83;11.82;;;9.80;99.90;;;;;;5050096;28;20041;-44
2022/11/11 05:21:46;;;;;;;22.40;12.15;;;9.80;99.90;;;;;;5051056;28;20136;-45
2022/11/11 05:26:56;;;;;;;23.45;12.40;;;9.90;99.90;;;;;;5048400;28;20513;-43
2022/11/11 05:29:22;;;;;;;19.70;10.88;;;10.00;99.90;;;;;;5045892;28;20051;-43
2022/11/11 05:31:48;;;;;;;22.33;11.43;;;10.00;99.90;;;;;;5051760;28;20041;-41
2022/11/11 05:34:13;;;;;;;21.73;12.15;;;10.00;99.90;;;;;;5048465;28;20029;-42
2022/11/11 05:36:39;;;;;;;24.45;12.13;;;10.00;99.90;;;;;;5051129;28;20035;-41
2022/11/11 05:39:04;;;;;;;23.83;11.05;;;10.00;99.90;;;;;;5044469;28;20527;-40
2022/11/11 05:41:30;;;;;;;31.58;12.32;;;10.10;99.90;;;;;;5048525;28;20033;-41
2022/11/11 05:43:56;;;;;;;23.52;11.73;;;10.10;99.90;;;;;;5045282;28;20037;-43
2022/11/11 05:46:21;;;;;;;25.25;13.27;;;10.10;99.90;;;;;;5049460;28;20037;-42
2022/11/11 05:51:31;;;;;;;25.15;12.40;;;10.00;99.90;;;;;;5049871;28;20072;-41
2022/11/11 05:53:57;;;;;;;19.98;10.15;;;10.00;99.90;;;;;;5043784;28;20071;-42
2022/11/11 05:56:23;;;;;;;22.60;12.23;;;10.00;99.90;;;;;;5045547;28;20095;-41
2022/11/11 05:58:48;;;;;;;21.45;9.70;;;10.10;99.90;;;;;;5044267;28;20410;-41
2022/11/11 06:01:14;;;;;;;22.42;11.82;;;10.00;99.90;;;;;;5042590;28;20071;-43
2022/11/11 06:03:40;;;;;;;20.52;9.45;;;10.00;99.90;;;;;;5044771;28;20449;-40
2022/11/11 06:06:05;;;;;;;22.95;11.30;;;10.10;99.90;;;;;;5046777;28;20405;-41
2022/11/11 06:08:31;;;;;;;19.38;10.45;;;10.10;99.90;;;;;;5044991;28;20405;-43
2022/11/11 06:10:57;;;;;;;19.20;10.80;;;10.10;99.90;;;;;;5041541;28;20037;-42
2022/11/11 06:13:23;;;;;;;20.80;10.90;;;10.10;99.90;;;;;;5041841;28;20033;-41
2022/11/11 06:15:48;;;;;;;23.95;11.40;;;10.10;99.90;;;;;;5045124;28;20043;-44
2022/11/11 06:18:14;;;;;;;17.27;9.25;;;10.10;99.90;;;;;;5038273;28;20041;-41
2022/11/11 06:20:40;;;;;;;22.75;10.50;;;10.10;99.90;;;;;;5041930;28;20076;-43
2022/11/11 06:23:05;;;;;;;20.73;10.85;;;10.10;99.90;;;;;;5047913;28;20481;-46
2022/11/11 06:28:18;;;;;;;17.58;9.30;;;10.20;99.90;;;;;;5049211;28;20048;-42
2022/11/11 06:30:44;;;;;;;20.33;10.52;;;10.20;99.90;;;;;;5047778;28;20037;-41
2022/11/11 06:33:10;;;;;;;18.15;10.00;;;10.20;99.90;;;;;;5046313;28;20064;-44
2022/11/11 06:35:38;;;;;;;28.60;11.45;;;10.20;99.90;;;;;;5050180;28;20504;-43
2022/11/11 06:38:05;;;;;;;19.67;10.27;;;10.20;99.90;;;;;;5048156;28;20037;-42
2022/11/11 06:40:31;;;;;;;22.50;10.15;;;10.20;99.90;;;;;;5050063;28;20037;-41
2022/11/11 06:42:58;;;;;;;18.90;10.48;;;10.20;99.90;;;;;;5045635;28;20110;-40
2022/11/11 06:45:24;;;;;;;19.25;10.40;;;10.20;99.90;;;;;;5043312;28;20064;-39
2022/11/11 06:47:50;;;;;;;21.52;10.57;;;10.30;99.90;;;;;;5045178;28;20516;-44
2022/11/11 06:50:17;;;;;;;16.08;9.98;;;10.20;99.90;;;;;;5043662;28;20041;-42
2022/11/11 06:52:42;;;;;;;20.27;10.32;;;10.30;99.90;;;;;;5044960;28;20576;-40
2022/11/11 06:55:08;;;;;;;16.73;9.82;;;10.30;99.90;;;;;;5048602;28;20028;-41
2022/11/11 06:57:34;;;;;;;22.55;11.32;;;10.30;99.90;;;;;;5035776;28;20494;-40
2022/11/11 06:59:59;;;;;;;17.17;9.85;;;10.30;99.90;;;;;;5036159;28;20037;-40
2022/11/11 07:02:25;;;;;;;16.50;9.95;;;10.30;99.90;;;;;;5048175;28;20041;-44
2022/11/11 07:04:51;;;;;;;17.88;9.98;;;10.30;99.90;;;;;;5041777;28;20219;-42
2022/11/11 07:07:16;;;;;;;17.50;10.07;;;10.30;99.90;;;;;;5046054;28;20036;-40
2022/11/11 07:09:42;;;;;;;17.83;9.68;;;10.30;99.90;;;;;;5041671;28;20045;-40
2022/11/11 07:12:08;;;;;;;18.67;9.95;;;10.30;99.90;;;;;;5044423;28;20409;-40
2022/11/11 07:14:34;;;;;;;21.15;10.63;;;10.30;99.90;;;;;;5044173;28;20033;-41
2022/11/11 07:17:00;;;;;;;20.40;9.93;;;10.30;99.90;;;;;;5046793;28;20048;-41
2022/11/11 07:19:25;;;;;;;14.23;7.05;;;10.30;99.90;;;;;;5050780;28;20036;-41
2022/11/11 07:21:51;;;;;;;21.38;9.75;;;10.30;99.90;;;;;;5045362;28;20067;-43
2022/11/11 07:24:16;;;;;;;19.45;9.95;;;10.40;99.90;;;;;;5048192;28;20163;-38
2022/11/11 07:26:42;;;;;;;18.50;9.63;;;10.40;99.90;;;;;;5050187;28;20048;-40
2022/11/11 07:29:08;;;;;;;15.82;7.70;;;10.40;99.90;;;;;;5045442;28;20128;-38
2022/11/11 07:31:34;;;;;;;19.63;10.80;;;10.40;99.90;;;;;;5045173;28;20037;-38
2022/11/11 07:34:00;;;;;;;18.48;9.68;;;10.40;99.90;;;;;;5053388;28;20033;-37
2022/11/11 07:36:25;;;;;;;20.58;11.43;;;10.40;99.90;;;;;;5048377;28;20069;-38
2022/11/11 07:38:51;;;;;;;18.42;9.57;;;10.40;99.90;;;;;;5045442;28;20049;-39
2022/11/11 07:41:17;;;;;;;16.35;9.40;;;10.40;99.90;;;;;;5048301;28;20083;-40
2022/11/11 07:43:42;;;;;;;18.17;10.13;;;10.40;99.90;;;;;;5050718;28;20106;-41
2022/11/11 07:46:08;;;;;;;16.17;8.05;;;10.40;99.90;;;;;;5053709;28;20453;-39
2022/11/11 07:48:33;;;;;;;16.25;7.75;;;10.40;99.90;;;;;;5050208;28;20067;-40
2022/11/11 07:50:59;;;;;;;19.45;9.00;;;10.50;99.90;;;;;;5048889;28;20580;-40
2022/11/11 07:53:27;;;;;;;17.00;7.80;;;10.50;99.90;;;;;;5042265;28;20064;-39
2022/11/11 07:55:53;;;;;;;15.85;8.43;;;10.50;99.90;;;;;;5046158;28;20607;-38
2022/11/11 07:58:19;;;;;;;18.40;9.55;;;10.50;99.90;;;;;;5044337;28;20025;-39
2022/11/11 08:00:45;;;;;;;14.27;7.85;;;10.50;99.90;;;;;;5040506;28;20586;-39
2022/11/11 08:03:10;;;;;;;16.15;7.85;;;10.40;99.90;;;;;;5043688;28;20032;-39
2022/11/11 08:05:36;;;;;;;16.38;7.88;;;10.50;99.90;;;;;;5040217;28;20041;-39
2022/11/11 08:08:06;;;;;;;15.07;8.20;;;10.40;99.90;;;;;;5039993;28;20040;-39
2022/11/11 08:10:33;;;;;;;16.58;8.98;;;10.40;99.90;;;;;;5049546;28;20045;-39
2022/11/11 08:15:43;;;;;;;18.02;8.48;;;10.50;99.90;;;;;;5052013;28;20041;-39
2022/11/11 08:18:09;;;;;;;17.90;8.50;;;10.50;99.90;;;;;;5045089;28;20035;-40
2022/11/11 08:20:35;;;;;;;17.17;8.43;;;10.50;99.90;;;;;;5043718;28;20041;-39
2022/11/11 08:23:03;;;;;;;18.00;8.90;;;10.50;99.90;;;;;;5040906;28;20036;-39
2022/11/11 08:25:30;;;;;;;21.20;8.52;;;10.50;99.90;;;;;;5049270;28;20490;-39
2022/11/11 08:28:03;;;;;;;16.27;8.68;;;10.50;99.90;;;;;;5050420;28;20084;-39
2022/11/11 08:30:30;;;;;;;15.20;8.43;;;10.50;99.90;;;;;;5038463;28;20048;-39
2022/11/11 08:33:01;;;;;;;16.33;8.43;;;10.60;99.90;;;;;;5043524;28;20124;-39
2022/11/11 08:35:27;;;;;;;17.55;8.73;;;10.60;99.90;;;;;;5046821;28;20033;-40
2022/11/11 08:37:53;;;;;;;15.38;8.10;;;10.60;99.90;;;;;;5049764;28;20045;-39
2022/11/11 08:40:19;;;;;;;13.27;7.82;;;10.70;99.90;;;;;;5049009;28;20067;-39
2022/11/11 08:42:45;;;;;;;12.77;7.78;;;10.70;99.90;;;;;;5039727;28;20095;-39
2022/11/11 08:45:11;;;;;;;15.40;7.80;;;10.70;99.90;;;;;;5045833;28;20032;-39
2022/11/11 08:47:37;;;;;;;13.30;8.18;;;10.70;99.90;;;;;;5052374;28;20033;-38
2022/11/11 08:50:05;;;;;;;13.40;7.47;;;10.70;99.90;;;;;;5050103;28;20049;-39
2022/11/11 08:52:31;;;;;;;19.35;8.20;;;10.80;99.90;;;;;;5044740;28;20044;-38
2022/11/11 08:54:59;;;;;;;15.75;7.65;;;10.80;99.90;;;;;;5048790;28;20044;-39
2022/11/11 08:57:25;;;;;;;13.88;7.20;;;10.90;99.90;;;;;;5039751;28;20050;-38
2022/11/11 08:59:51;;;;;;;16.17;6.90;;;10.90;99.90;;;;;;5034891;28;20079;-38
2022/11/11 09:02:16;;;;;;;13.70;6.32;;;10.90;99.90;;;;;;5038854;28;20029;-38
2022/11/11 09:04:42;;;;;;;16.83;7.25;;;10.90;99.90;;;;;;5043589;28;20041;-38
2022/11/11 09:07:11;;;;;;;14.55;7.22;;;10.90;99.90;;;;;;5046378;28;20068;-38
2022/11/11 09:09:36;;;;;;;13.30;6.80;;;10.90;99.90;;;;;;5040804;28;20045;-39
2022/11/11 09:12:03;;;;;;;14.27;7.43;;;10.90;99.90;;;;;;5044765;28;20042;-46
2022/11/11 09:14:29;;;;;;;14.88;6.82;;;11.00;99.90;;;;;;5038672;28;20479;-39
2022/11/11 09:16:54;;;;;;;16.00;7.47;;;11.00;99.90;;;;;;5045184;28;20037;-39
2022/11/11 09:19:20;;;;;;;16.10;7.55;;;11.00;99.90;;;;;;5042643;28;20045;-39
2022/11/11 09:21:46;;;;;;;10.07;5.22;;;11.00;99.90;;;;;;5039582;28;20044;-39
2022/11/11 09:24:12;;;;;;;12.52;6.97;;;11.10;99.90;;;;;;5044693;28;20045;-39
2022/11/11 09:26:37;;;;;;;14.90;7.75;;;11.10;99.90;;;;;;5044322;28;20132;-39
2022/11/11 09:29:03;;;;;;;16.17;7.25;;;11.10;99.90;;;;;;5042478;28;20422;-39
2022/11/11 09:31:29;;;;;;;13.13;7.55;;;11.10;99.90;;;;;;5045779;28;20037;-39
2022/11/11 09:33:54;;;;;;;15.43;7.28;;;11.20;99.90;;;;;;5041501;28;20448;-39
2022/11/11 09:36:20;;;;;;;14.82;7.80;;;11.20;99.90;;;;;;5046611;28;20033;-39
2022/11/11 09:38:46;;;;;;;15.40;6.50;;;11.20;99.90;;;;;;5055284;28;21081;-40
2022/11/11 09:41:23;;;;;;;14.98;7.18;;;11.20;99.90;;;;;;5039913;28;20076;-39
2022/11/11 09:43:58;;;;;;;15.50;6.90;;;11.30;99.90;;;;;;5033494;28;20168;-38
2022/11/11 09:46:38;;;;;;;12.40;7.30;;;11.30;99.90;;;;;;5040243;28;20040;-40
2022/11/11 09:49:26;;;;;;;14.30;7.10;;;11.30;99.90;;;;;;5031959;28;20045;-38
2022/11/11 09:52:19;;;;;;;14.45;7.25;;;11.30;99.90;;;;;;5042778;28;20037;-39
2022/11/11 09:55:15;;;;;;;13.48;6.13;;;11.40;99.90;;;;;;5035857;28;20124;-41
2022/11/11 09:58:11;;;;;;;11.07;6.25;;;11.50;99.90;;;;;;5043732;28;20460;-39
2022/11/11 10:00:43;;;;;;;10.55;6.97;;;11.50;99.90;;;;;;5033880;28;20051;-39
2022/11/11 10:03:09;;;;;;;11.18;6.47;;;11.50;99.90;;;;;;5032679;28;20138;-39
2022/11/11 10:06:09;;;;;;;13.80;6.55;;;11.50;99.90;;;;;;5038927;28;20521;-41
2022/11/11 10:08:48;;;;;;;10.60;5.85;;;11.60;99.90;;;;;;5040213;28;20053;-39
2022/11/11 10:11:48;;;;;;;11.23;5.93;;;11.70;99.90;;;;;;5041618;28;20064;-39
2022/11/11 10:14:15;;;;;;;11.32;6.57;;;11.80;99.90;;;;;;5032962;28;20129;-41
2022/11/11 10:17:08;;;;;;;10.77;6.22;;;11.80;99.90;;;;;;5034333;28;20041;-40
2022/11/11 10:20:00;;;;;;;14.70;6.47;;;11.90;99.90;;;;;;5042908;28;20068;-41
2022/11/11 10:22:39;;;;;;;10.93;5.75;;;11.80;99.90;;;;;;5030515;28;20060;-42
2022/11/11 10:25:11;;;;;;;12.55;6.80;;;11.80;99.90;;;;;;5043137;28;20128;-40
2022/11/11 10:27:40;;;;;;;13.35;6.22;;;11.90;99.90;;;;;;5045029;28;20528;-40
2022/11/11 10:30:20;;;;;;;10.88;6.03;;;11.90;99.90;;;;;;5038500;28;20043;-39
2022/11/11 10:32:58;;;;;;;12.50;5.85;;;11.90;99.90;;;;;;5039377;28;20040;-39
2022/11/11 10:35:26;;;;;;;9.68;5.35;;;12.00;99.90;;;;;;5039360;28;20045;-39
2022/11/11 10:38:09;;;;;;;13.18;5.72;;;12.00;99.90;;;;;;5046961;28;20520;-39
2022/11/11 10:40:49;;;;;;;12.13;5.97;;;12.00;99.90;;;;;;5037419;28;20500;-40
2022/11/11 10:43:26;;;;;;;10.98;6.13;;;12.00;99.90;;;;;;5042598;28;20052;-41
2022/11/11 10:46:26;;;;;;;12.90;6.30;;;12.00;99.90;;;;;;5040736;28;20044;-39
2022/11/11 10:49:05;;;;;;;9.77;6.22;;;12.00;99.90;;;;;;5043566;28;20444;-38
2022/11/11 10:51:55;;;;;;;10.13;5.38;;;12.00;99.90;;;;;;5036962;28;20041;-39
2022/11/11 10:54:29;;;;;;;11.70;6.45;;;12.00;99.90;;;;;;5047433;28;20110;-39
2022/11/11 10:57:38;;;;;;;11.25;5.70;;;12.00;99.90;;;;;;5044742;28;20046;-39
2022/11/11 11:00:16;;;;;;;13.07;5.20;;;12.00;99.90;;;;;;5039801;28;20147;-39
2022/11/11 11:02:50;;;;;;;9.48;5.60;;;12.10;99.90;;;;;;5039520;28;20045;-39
2022/11/11 11:05:31;;;;;;;14.23;6.38;;;12.10;99.90;;;;;;5036100;28;20095;-40
2022/11/11 11:08:05;;;;;;;10.98;5.78;;;12.00;99.90;;;;;;5042712;28;20498;-39
2022/11/11 11:10:38;;;;;;;9.00;4.70;;;12.10;99.90;;;;;;5044380;28;20041;-39
2022/11/11 11:13:08;;;;;;;9.30;5.75;;;12.10;99.90;;;;;;5041882;28;20063;-39
2022/11/11 11:15:39;;;;;;;11.13;5.60;;;12.10;99.90;;;;;;5039917;28;20112;-40
2022/11/11 11:18:12;;;;;;;12.87;5.83;;;12.20;99.90;;;;;;5047822;28;20076;-39
2022/11/11 11:20:53;;;;;;;8.65;5.13;;;12.30;99.90;;;;;;5044755;28;20291;-40
2022/11/11 11:23:33;;;;;;;8.20;5.05;;;12.40;99.90;;;;;;5032150;28;20045;-40
2022/11/11 11:26:01;;;;;;;10.65;5.53;;;12.40;99.90;;;;;;5040381;28;20452;-43
2022/11/11 11:28:27;;;;;;;10.35;6.15;;;12.30;99.90;;;;;;5034768;28;20041;-48
2022/11/11 11:30:59;;;;;;;10.57;5.53;;;12.30;99.90;;;;;;5035918;28;20504;-47
2022/11/11 11:33:24;;;;;;;8.80;5.53;;;12.40;99.90;;;;;;5042119;28;20072;-40
2022/11/11 11:35:50;;;;;;;8.82;5.35;;;12.30;99.90;;;;;;5037010;28;20091;-41
2022/11/11 11:38:17;;;;;;;9.68;5.45;;;12.30;99.90;;;;;;5036763;28;20044;-46
2022/11/11 11:40:49;;;;;;;9.10;5.65;;;12.40;99.90;;;;;;5043061;28;20702;-43
2022/11/11 11:43:23;;;;;;;10.30;6.05;;;12.30;99.90;;;;;;5036480;28;20103;-42
2022/11/11 11:45:55;;;;;;;11.77;5.53;;;12.20;99.90;;;;;;5061766;28;20494;-43
2022/11/11 11:48:55;;;;;;;10.10;6.13;;;12.20;99.90;;;;;;5033671;28;20038;-40
2022/11/11 11:51:53;;;;;;;9.75;5.50;;;12.20;99.90;;;;;;5037653;28;20044;-46
2022/11/11 11:54:45;;;;;;;12.43;6.13;;;12.30;99.90;;;;;;5051470;28;20432;-43
2022/11/11 11:57:34;;;;;;;10.40;5.40;;;12.30;99.90;;;;;;5050593;28;20490;-47
2022/11/11 12:00:23;;;;;;;10.43;5.22;;;12.30;99.90;;;;;;5042896;28;20045;-44
2022/11/11 12:03:07;;;;;;;9.05;5.72;;;12.20;99.90;;;;;;5047306;28;20051;-46
2022/11/11 12:06:00;;;;;;;11.20;5.45;;;12.30;99.90;;;;;;5043833;28;20546;-44
2022/11/11 12:08:31;;;;;;;9.30;4.88;;;12.20;99.90;;;;;;5024826;28;20122;-46
2022/11/11 12:11:16;;;;;;;10.40;5.50;;;12.30;99.90;;;;;;5046968;28;20076;-39
2022/11/11 12:14:22;;;;;;;9.85;5.47;;;12.40;99.90;;;;;;5049259;28;20032;-39
2022/11/11 12:17:09;;;;;;;11.05;4.97;;;12.40;99.90;;;;;;5042070;28;20521;-38
2022/11/11 12:19:47;;;;;;;15.25;6.65;;;12.40;99.90;;;;;;5046814;28;20383;-39
2022/11/11 12:22:25;;;;;;;15.25;5.32;;;12.60;99.90;;;;;;5042350;28;20556;-39
2022/11/11 12:25:17;;;;;;;11.25;5.65;;;12.70;99.90;;;;;;5046853;28;20052;-38
2022/11/11 12:28:00;;;;;;;10.07;4.95;;;12.70;99.90;;;;;;5043136;28;20140;-41
2022/11/11 12:30:28;;;;;;;9.05;5.28;;;13.00;99.90;;;;;;5046491;28;20132;-39
2022/11/11 12:33:11;;;;;;;9.35;5.50;;;13.30;99.90;;;;;;5050076;28;20565;-39
2022/11/11 12:35:57;;;;;;;10.60;5.35;;;13.60;99.90;;;;;;5040059;28;20041;-38
2022/11/11 12:39:01;;;;;;;10.80;5.32;;;14.00;99.90;;;;;;5036475;28;20514;-39
2022/11/11 12:42:03;;;;;;;9.23;5.25;;;14.40;99.90;;;;;;5042339;28;20346;-40
2022/11/11 12:44:54;;;;;;;10.20;5.00;;;14.70;99.90;;;;;;5035852;28;20037;-39
2022/11/11 12:47:40;;;;;;;9.60;5.40;;;14.90;99.90;;;;;;5042250;28;20045;-38
2022/11/11 12:50:20;;;;;;;9.02;5.18;;;15.30;99.90;;;;;;5036999;28;20062;-39
2022/11/11 12:53:19;;;;;;;8.45;4.45;;;15.60;99.90;;;;;;5044323;28;20037;-40
2022/11/11 12:56:06;;;;;;;11.32;5.50;;;15.90;99.90;;;;;;5032077;28;20047;-38
2022/11/11 12:59:16;;;;;;;10.23;5.07;;;16.10;99.70;;;;;;5039123;28;20120;-39
2022/11/11 13:01:56;;;;;;;7.43;4.88;;;16.30;98.50;;;;;;5041911;28;20037;-39
2022/11/11 13:04:40;;;;;;;7.47;4.60;;;16.30;99.90;;;;;;5041733;28;20029;-38
2022/11/11 13:07:34;;;;;;;9.43;5.20;;;16.40;99.00;;;;;;5031844;28;20090;-37
2022/11/11 13:10:37;;;;;;;8.27;5.03;;;16.70;97.00;;;;;;5042782;28;20163;-39
2022/11/11 13:13:08;;;;;;;10.60;5.20;;;16.80;96.80;;;;;;5038642;28;20044;-39
2022/11/11 13:15:34;;;;;;;6.50;4.90;;;16.90;98.00;;;;;;5041311;28;20052;-39
2022/11/11 13:18:01;;;;;;;7.90;4.95;;;16.70;96.60;;;;;;5044657;28;20037;-41
2022/11/11 13:21:12;;;;;;;10.32;5.93;;;16.70;97.00;;;;;;5039738;28;20041;-38
2022/11/11 13:23:38;;;;;;;7.13;4.80;;;17.00;96.30;;;;;;5039853;28;20048;-38
2022/11/11 13:26:11;;;;;;;8.30;5.40;;;17.20;96.30;;;;;;5036555;28;20064;-38
2022/11/11 13:28:41;;;;;;;8.27;4.63;;;17.10;94.60;;;;;;5040918;28;20045;-38
2022/11/11 13:31:15;;;;;;;9.82;5.18;;;17.20;95.10;;;;;;5047763;28;20037;-37
2022/11/11 13:33:50;;;;;;;7.47;5.00;;;17.10;92.50;;;;;;5042921;28;20041;-39
2022/11/11 13:36:20;;;;;;;7.00;4.97;;;17.30;95.30;;;;;;5043928;28;20036;-38
2022/11/11 13:38:49;;;;;;;7.75;4.93;;;17.80;94.40;;;;;;5045511;28;20086;-39
2022/11/11 13:41:28;;;;;;;6.47;4.65;;;18.10;93.90;;;;;;5044608;28;20052;-38
2022/11/11 13:43:57;;;;;;;7.72;4.50;;;18.30;92.90;;;;;;5051365;28;20048;-39
2022/11/11 13:46:42;;;;;;;6.88;4.13;;;18.40;93.40;;;;;;5050446;28;20041;-38
2022/11/11 13:49:25;;;;;;;8.77;4.18;;;18.40;92.60;;;;;;5038156;28;20033;-38
2022/11/11 13:51:57;;;;;;;;;;;18.30;91.40;;;;;;5048877;28;20049;-39
2022/11/11 13:54:35;;;;;;;7.93;4.20;;;17.90;90.00;;;;;;5044316;28;19924;-39
2022/11/11 13:57:07;;;;;;;8.27;4.47;;;17.30;93.80;;;;;;5047907;28;20453;-39
2022/11/11 13:59:38;;;;;;;7.10;4.82;;;17.00;94.90;;;;;;5046353;28;20041;-39
2022/11/11 14:02:19;;;;;;;6.43;4.63;;;16.60;95.80;;;;;;5050049;28;20601;-38
2022/11/11 14:05:04;;;;;;;7.97;4.97;;;16.20;96.10;;;;;;5043587;28;20041;-39
2022/11/11 14:07:48;;;;;;;8.13;4.50;;;15.80;96.60;;;;;;5041569;28;20052;-41
2022/11/11 14:10:16;;;;;;;7.65;4.70;;;15.50;97.70;;;;;;5041459;28;20045;-39
2022/11/11 14:12:50;;;;;;;10.43;4.70;;;15.30;98.60;;;;;;5038580;28;20055;-38
2022/11/11 14:15:40;;;;;;;6.40;4.50;;;15.10;99.20;;;;;;5045842;28;20045;-39
2022/11/11 14:18:17;;;;;;;8.52;4.78;;;14.90;99.50;;;;;;5045865;28;20037;-38
2022/11/11 14:20:50;;;;;;;7.20;4.60;;;14.70;99.90;;;;;;5045376;28;20058;-38
2022/11/11 14:23:39;;;;;;;6.47;4.15;;;14.50;99.90;;;;;;5042419;28;20055;-40